Terminal Aerodrome Forecast
Issued by NWS Memphis, TN

Home | Current Version | Previous Version | Text Only | Print | Product List | Glossary On
Versions: 1 2 3 4 5 6 7 8 9 10 11
000
FTUS44 KMEG 281250 AAA
TAFMKL
TAF AMD
KMKL 281250Z 2813/2912 01006KT P6SM VCSH BKN010 OVC016
     FM281400 36006KT P6SM -RA OVC010
     FM281800 36006KT P6SM VCSH BKN015 OVC025
     FM290100 01004KT P6SM OVC050
     FM290600 01004KT P6SM OVC100=

USA.gov is the U.S. government's official web portal to all federal, state and local government web resources and services.